A- A+ FrançaisEnglishEspañol中国

le plus proche LFQT Merville-Calonne LFBT Tarbes-Lourdes-PyrénéesLFOT Tours-St-Symphorien LFEF Amboise Dierre

manche à air

La météo aéronautique pour les pilotes, la préparation du vol avec les METAR (METeorological Aerodrome Report, message d'observation des conditions météorologiques pour l'aviation) et Les TAF (Terminal Aerodrome Forecast : message de prévision à court terme des conditions météorologiques pour l'aviation). Et les autres ressources comme les VAC (Visual Approch Chart) et les NOTAM (Notice To Airman) pour préprer les vols.

Aéroport Jijell Taher (Algérie) / OACI DAAV/ IATA GJL

L'altitude de l'aéroport Jijell Taher est de 11 m=36 ft. Il est situé à proximité de Jijel (Algérie). La météo générale à 5 jours est disponible pour Rouached situé à 40.4 km.

METAR de l'aéroport Jijell Taher - DAAV

DAAV 291000Z 36002KT CAVOK 27/20 Q1018

Décodage du METAR de l'aéroport Jijell Taher (DZ)

METAR émis par DAAV le dimanche 29 septembre 2019 à 10:00 heure TU, il y a 39 minutes.

La visibilité est de supérieure à 10 km=supérieure à 6.2 sm.

La température est de 27°C=81 °F et le point rosée est de 20°C=68 °F . Ce qui correspond à 66% d'humidité relative.

Le QNH est de 1018 hPa=30.06 inHg

Vent de 2 kt=4 km/h, orienté à 360°.

Pas de nuages.

TAF de l'aéroport Jijell Taher - DAAV

DAAV 290500Z 2906/3006 20005KT CAVOK PROB40 2918/2924 FEW023TCU FEW026CB

DAAV 290500Z 2906/3006 20005KT visibilité supérieure à 10km, aucun nuage à une hauteur inférieure à 5000 ft ou sous l'altitude minimale de secteur et aucun cumulonimbus ou cumulus bourgeonnant, quelle que soit leur altitude probabilité de 40% d'avoir 2918/2924 quelques nuages à 023TCU quelques nuages à 026CB

Aéroport à proximité de Jijell Taher

Météo générale à 5 jours à Rouached (40.4 km)DAAE Aéroport Bejaia Soummam (72 km)DAAS Aéroport Setif Ain Arnat (84 km)DAAM Aéroport Telergma (88 km)DABC Aéroport Constantine Ain El Bey (88 km)DABT Aéroport Batna (122 km)DABB Aéroport Annaba Mellah (172 km)

Vue aérienne de l'aéroport Jijell Taher

NOTAM de l'aéroport Jijell Taher

Les NOTAM sont fournis sans aucune garantie de leur actualité. Le pilote est le seul responsable de la vérification de sa validité avant de l'utiliser opérationnellement pour préparer un vol ou l'utiliser lors de sa navigation.

Pas de NOTAM

Sources des données